Time;durP1;ratioP1;P1;durP2;ratioP2;P2;SDS_P1;SDS_P2;PMS_P1;PMS_P2;Temp;Humidity;BMP_temperature;BMP_pressure;BME280_temperature;BME280_humidity;BME280_pressure;Samples;Min_cycle;Max_cycle;Signal;HPM_P1;HPM_P2
2022/12/10 00:00:39;;;;;;;30.00;19.77;;;;;;;1.15;98.29;97589.38;2173640;81;20933;-84
2022/12/10 00:03:39;;;;;;;26.73;18.30;;;;;;;1.15;98.44;97598.78;2173478;81;21025;-84
2022/12/10 00:06:39;;;;;;;22.13;16.13;;;;;;;1.13;98.46;97596.17;2173531;81;20968;-84
2022/12/10 00:09:40;;;;;;;39.93;24.77;;;;;;;1.14;98.44;97597.91;2173343;82;20999;-84
2022/12/10 00:12:40;;;;;;;25.13;18.97;;;;;;;1.17;98.49;97591.58;2173646;81;20928;-84
2022/12/10 00:15:41;;;;;;;19.83;15.30;;;;;;;1.20;98.49;97581.38;2174160;81;21395;-84
2022/12/10 00:18:41;;;;;;;20.70;15.63;;;;;;;1.22;98.43;97574.58;2173751;81;21023;-85
2022/12/10 00:21:41;;;;;;;15.90;12.27;;;;;;;1.23;98.45;97580.18;2174079;81;20957;-85
2022/12/10 00:24:42;;;;;;;15.23;12.13;;;;;;;1.24;98.45;97583.20;2173998;81;21064;-83
2022/12/10 00:27:42;;;;;;;35.17;21.30;;;;;;;1.20;98.28;97588.22;2174448;82;20902;-84
2022/12/10 00:30:43;;;;;;;23.73;15.57;;;;;;;1.17;98.72;97591.98;2173971;81;20894;-82
2022/12/10 00:33:43;;;;;;;15.03;11.37;;;;;;;1.16;98.53;97591.53;2174385;81;20976;-84
2022/12/10 00:36:44;;;;;;;13.90;11.43;;;;;;;1.16;98.61;97596.26;2173880;81;20954;-85
2022/12/10 00:39:44;;;;;;;13.73;10.70;;;;;;;1.15;98.76;97604.80;2173897;82;21169;-85
2022/12/10 00:42:44;;;;;;;13.03;10.53;;;;;;;1.15;98.73;97614.20;2173829;81;20941;-86
2022/12/10 00:45:45;;;;;;;13.23;11.70;;;;;;;1.13;98.68;97610.30;2173648;81;20962;-85
2022/12/10 00:48:45;;;;;;;14.53;10.70;;;;;;;1.14;98.81;97597.05;2173848;81;20909;-85
2022/12/10 00:51:45;;;;;;;14.53;11.33;;;;;;;1.13;99.10;97600.44;2173693;82;20953;-85
2022/12/10 00:54:46;;;;;;;13.63;11.27;;;;;;;1.09;98.86;97593.05;2173538;81;20996;-84
2022/12/10 00:57:48;;;;;;;15.53;12.27;;;;;;;1.09;99.25;97593.47;2162536;82;20995;-85
2022/12/10 01:00:49;;;;;;;13.50;11.63;;;;;;;1.09;99.09;97593.05;2173284;81;21004;-85
2022/12/10 01:03:49;;;;;;;13.67;12.10;;;;;;;1.07;99.06;97598.56;2172527;81;21360;-84
2022/12/10 01:06:49;;;;;;;14.67;12.70;;;;;;;1.05;99.17;97600.22;2172559;81;21039;-84
2022/12/10 01:09:50;;;;;;;16.13;13.20;;;;;;;1.08;99.26;97600.31;2189602;81;21004;-84
2022/12/10 01:12:50;;;;;;;16.93;13.50;;;;;;;1.05;99.38;97604.08;2190443;81;20928;-84
2022/12/10 01:15:51;;;;;;;16.50;13.17;;;;;;;1.05;99.28;97602.79;2190350;81;21336;-84
2022/12/10 01:18:51;;;;;;;19.50;14.53;;;;;;;1.06;99.36;97596.83;2190489;81;21011;-84
2022/12/10 01:21:51;;;;;;;16.17;13.67;;;;;;;1.08;99.56;97601.59;2190307;81;20996;-84
2022/12/10 01:24:52;;;;;;;18.97;13.63;;;;;;;1.05;99.74;97596.36;2190075;81;21025;-84
2022/12/10 01:27:52;;;;;;;20.67;13.77;;;;;;;1.04;99.62;97594.63;2190385;81;20929;-84
2022/12/10 01:30:53;;;;;;;17.20;14.00;;;;;;;1.01;100.00;97599.67;2190069;81;20969;-85
2022/12/10 01:33:53;;;;;;;17.80;13.53;;;;;;;0.99;100.00;97606.47;2190028;81;20968;-84
2022/12/10 01:36:53;;;;;;;16.03;13.27;;;;;;;0.94;100.00;97606.33;2190242;81;20924;-84
2022/12/10 01:39:54;;;;;;;18.63;14.20;;;;;;;0.91;100.00;97605.38;2190224;81;20960;-84
2022/12/10 01:42:54;;;;;;;19.47;15.80;;;;;;;0.89;100.00;97596.33;2189562;81;20968;-85
2022/12/10 01:45:55;;;;;;;23.80;17.37;;;;;;;0.88;100.00;97587.30;2188829;81;21015;-85
2022/12/10 01:48:55;;;;;;;25.00;18.77;;;;;;;0.83;100.00;97590.98;2188903;81;21351;-85
2022/12/10 01:51:55;;;;;;;24.17;17.80;;;;;;;0.83;100.00;97588.83;2189493;81;20937;-85
2022/12/10 01:54:56;;;;;;;24.63;18.53;;;;;;;0.83;100.00;97584.97;2189036;81;21003;-84
2022/12/10 01:57:56;;;;;;;37.83;25.77;;;;;;;0.83;100.00;97584.97;2190369;81;21411;-84
2022/12/10 02:00:57;;;;;;;25.60;19.73;;;;;;;0.83;100.00;97579.83;2190510;81;20952;-84
2022/12/10 02:03:57;;;;;;;28.67;19.60;;;;;;;0.86;100.00;97578.23;2190676;81;20981;-84
2022/12/10 02:06:57;;;;;;;28.30;20.27;;;;;;;0.86;100.00;97578.23;2190862;81;20925;-84
2022/12/10 02:09:58;;;;;;;28.73;20.47;;;;;;;0.91;100.00;97589.54;2190180;81;21399;-84
2022/12/10 02:12:58;;;;;;;29.33;20.77;;;;;;;0.89;100.00;97597.62;2190495;81;20929;-83
2022/12/10 02:15:59;;;;;;;27.13;21.63;;;;;;;0.85;100.00;97594.88;2190712;81;20961;-84
2022/12/10 02:18:59;;;;;;;30.33;21.00;;;;;;;0.83;100.00;97593.96;2190701;81;21011;-83
2022/12/10 02:21:59;;;;;;;29.43;21.30;;;;;;;0.82;100.00;97599.52;2190666;81;20897;-83
2022/12/10 02:25:00;;;;;;;31.23;22.30;;;;;;;0.81;100.00;97600.34;2190537;81;20992;-83
2022/12/10 02:28:00;;;;;;;28.73;21.47;;;;;;;0.80;100.00;97606.72;2190515;81;20964;-83
2022/12/10 02:31:01;;;;;;;29.37;22.27;;;;;;;0.79;100.00;97616.53;2190266;81;21611;-83
2022/12/10 02:34:01;;;;;;;30.20;23.00;;;;;;;0.79;100.00;97616.53;2190836;81;21016;-82
2022/12/10 02:37:01;;;;;;;29.63;22.43;;;;;;;0.79;100.00;97626.80;2190887;81;20975;-83
2022/12/10 02:40:02;;;;;;;31.60;22.93;;;;;;;0.79;100.00;97628.09;2190623;81;20936;-83
2022/12/10 02:43:02;;;;;;;30.50;22.20;;;;;;;0.79;100.00;97628.09;2190738;81;20936;-83
2022/12/10 02:46:03;;;;;;;27.23;21.00;;;;;;;0.80;100.00;97623.41;2190840;81;20941;-83
2022/12/10 02:49:03;;;;;;;32.50;23.13;;;;;;;0.78;100.00;97614.38;2190861;81;20928;-83
2022/12/10 02:52:03;;;;;;;28.73;22.07;;;;;;;0.82;100.00;97609.79;2190571;81;20981;-82
2022/12/10 02:55:04;;;;;;;29.53;22.33;;;;;;;0.85;100.00;97604.74;2190597;81;21020;-83
2022/12/10 02:58:04;;;;;;;29.80;22.00;;;;;;;0.86;100.00;97608.18;2190713;81;21007;-82
2022/12/10 03:01:05;;;;;;;27.90;23.10;;;;;;;0.86;100.00;97608.18;2190569;81;20952;-82
2022/12/10 03:04:06;;;;;;;30.93;22.53;;;;;;;0.85;100.00;97608.59;2190006;81;21119;-82
2022/12/10 03:07:06;;;;;;;27.90;21.40;;;;;;;0.85;100.00;97606.02;2190558;81;20963;-83
2022/12/10 03:10:07;;;;;;;26.17;20.73;;;;;;;0.81;100.00;97595.20;2174998;81;20969;-82
2022/12/10 03:13:07;;;;;;;25.33;19.63;;;;;;;0.81;100.00;97595.20;2173729;81;20984;-82
2022/12/10 03:16:08;;;;;;;28.17;20.30;;;;;;;0.83;100.00;97593.96;2172815;81;20945;-83
2022/12/10 03:19:08;;;;;;;25.47;20.33;;;;;;;0.83;100.00;97591.39;2173750;81;20945;-82
2022/12/10 03:22:09;;;;;;;26.33;19.90;;;;;;;0.83;100.00;97600.38;2173771;81;20915;-82
2022/12/10 03:25:09;;;;;;;23.97;19.27;;;;;;;0.81;100.00;97607.17;2173758;81;20981;-82
2022/12/10 03:28:09;;;;;;;24.17;19.00;;;;;;;0.80;100.00;97613.14;2173977;81;20933;-82
2022/12/10 03:31:10;;;;;;;25.70;18.63;;;;;;;0.77;100.00;97611.34;2173964;81;20980;-82
2022/12/10 03:34:10;;;;;;;25.27;19.10;;;;;;;0.80;100.00;97614.42;2173270;81;20937;-82
2022/12/10 03:37:11;;;;;;;22.30;17.70;;;;;;;0.81;100.00;97625.16;2173501;81;21406;-82
2022/12/10 03:40:12;;;;;;;20.00;17.13;;;;;;;0.82;100.00;97620.48;2174161;82;21009;-82
2022/12/10 03:43:11;;;;;;;25.00;18.73;;;;;;;0.84;100.00;97620.11;2173780;81;20965;-82
2022/12/10 03:46:12;;;;;;;22.57;17.60;;;;;;;0.87;100.00;97626.66;2173878;81;20957;-83
2022/12/10 03:49:12;;;;;;;24.07;17.07;;;;;;;0.87;100.00;97620.23;2173905;81;20958;-81
2022/12/10 03:52:13;;;;;;;21.90;17.90;;;;;;;0.89;100.00;97623.72;2174244;81;20925;-82
2022/12/10 03:55:13;;;;;;;20.27;16.47;;;;;;;0.89;100.00;97617.30;2174127;81;20890;-83
2022/12/10 03:58:13;;;;;;;22.10;17.70;;;;;;;0.87;100.00;97622.80;2173876;81;21400;-83
2022/12/10 04:01:14;;;;;;;21.60;16.73;;;;;;;0.85;100.00;97635.98;2174048;81;20933;-82
2022/12/10 04:04:14;;;;;;;22.23;18.10;;;;;;;0.85;100.00;97635.98;2174209;81;20961;-83
2022/12/10 04:07:15;;;;;;;22.07;17.70;;;;;;;0.81;100.00;97653.00;2174210;82;20937;-82
2022/12/10 04:10:15;;;;;;;20.07;16.57;;;;;;;0.83;100.00;97653.92;2187804;81;21000;-83
2022/12/10 04:16:34;;;;;;;20.97;16.73;;;;;;;0.86;100.00;97652.73;2190775;81;21007;-82
2022/12/10 04:19:35;;;;;;;20.00;15.83;;;;;;;0.88;100.00;97650.23;2190711;81;20925;-83
2022/12/10 04:29:13;;;;;;;19.93;16.10;;;;;;;0.90;100.00;97647.30;2189407;81;21043;-83
2022/12/10 04:32:13;;;;;;;20.00;16.90;;;;;;;0.88;100.00;97654.09;2188526;81;20928;-84
2022/12/10 04:35:14;;;;;;;22.20;16.43;;;;;;;0.87;100.00;97653.63;2189174;81;20964;-84
2022/12/10 04:38:14;;;;;;;19.67;15.40;;;;;;;0.90;100.00;97653.73;2188199;81;21003;-83
2022/12/10 04:41:15;;;;;;;20.67;16.37;;;;;;;0.92;100.00;97653.36;2188583;81;20952;-83
2022/12/10 04:44:15;;;;;;;20.67;15.90;;;;;;;0.93;100.00;97662.81;2188659;81;20964;-84
2022/12/10 04:47:15;;;;;;;22.87;16.67;;;;;;;0.95;100.00;97667.58;2188388;81;21003;-82
2022/12/10 04:50:16;;;;;;;20.37;17.33;;;;;;;1.00;100.00;97672.86;2188200;81;21630;-82
2022/12/10 04:53:16;;;;;;;20.97;16.57;;;;;;;0.95;100.00;97678.73;2188651;81;20968;-82
2022/12/10 04:56:17;;;;;;;19.27;16.13;;;;;;;0.94;100.00;97677.40;2189544;81;20984;-83
2022/12/10 04:59:17;;;;;;;17.03;14.47;;;;;;;0.91;100.00;97667.91;2188821;81;20968;-82
2022/12/10 05:02:18;;;;;;;19.70;16.10;;;;;;;0.91;100.00;97667.03;2189903;81;20984;-83
2022/12/10 05:05:18;;;;;;;19.50;16.13;;;;;;;0.92;100.00;97676.48;2190144;81;20955;-82
2022/12/10 05:08:18;;;;;;;20.67;15.77;;;;;;;0.88;100.00;97675.52;2189395;81;21015;-82
2022/12/10 05:11:19;;;;;;;19.53;15.77;;;;;;;0.85;100.00;97680.94;2189704;81;20983;-81
2022/12/10 05:14:19;;;;;;;18.10;15.40;;;;;;;0.88;100.00;97695.20;2189353;81;20976;-84
2022/12/10 05:17:20;;;;;;;21.80;16.73;;;;;;;0.87;100.00;97694.73;2190050;81;21011;-82
2022/12/10 05:20:20;;;;;;;20.73;16.40;;;;;;;0.85;100.00;97692.50;2189251;81;20936;-83
2022/12/10 05:23:30;;;;;;;19.00;16.20;;;;;;;0.84;100.00;97695.89;2189386;81;21011;-85
2022/12/10 05:26:30;;;;;;;22.83;16.77;;;;;;;0.80;100.00;97702.62;2188649;81;21047;-83
2022/12/10 05:29:31;;;;;;;19.87;16.13;;;;;;;0.77;100.00;97712.81;2188785;81;20924;-83
2022/12/10 05:32:31;;;;;;;20.93;16.57;;;;;;;0.77;100.00;97720.93;2187856;81;20976;-83
2022/12/10 05:35:31;;;;;;;22.00;15.77;;;;;;;0.77;100.00;97722.21;2187761;81;20987;-82
2022/12/10 05:38:32;;;;;;;18.03;16.07;;;;;;;0.77;100.00;97714.09;2187865;81;21036;-83
2022/12/10 05:41:32;;;;;;;20.03;15.97;;;;;;;0.78;100.00;97718.82;2188188;81;21019;-84
2022/12/10 05:44:33;;;;;;;21.17;15.73;;;;;;;0.78;100.00;97722.67;2188689;81;20960;-81
2022/12/10 05:47:33;;;;;;;22.60;16.93;;;;;;;0.80;100.00;97718.05;2189984;81;20925;-84
2022/12/10 05:50:36;;;;;;;28.03;21.23;;;;;;;1.24;100.00;97719.86;2190947;81;21012;-82
2022/12/10 05:53:36;;;;;;;21.73;16.13;;;;;;;1.19;100.00;97723.99;2190688;81;21035;-82
2022/12/10 05:56:37;;;;;;;22.27;17.03;;;;;;;1.12;100.00;97722.06;2189892;81;21023;-81
2022/12/10 05:59:37;;;;;;;22.93;16.50;;;;;;;1.09;100.00;97729.27;2189252;81;21033;-82
2022/12/10 06:02:38;;;;;;;20.93;16.33;;;;;;;1.07;100.00;97736.05;2189875;81;20913;-81
2022/12/10 06:05:38;;;;;;;23.30;17.73;;;;;;;1.06;100.00;97736.88;2190104;81;20948;-82
2022/12/10 06:08:38;;;;;;;27.83;19.80;;;;;;;1.09;100.00;97739.95;2189432;81;21039;-82
2022/12/10 06:11:39;;;;;;;29.43;20.50;;;;;;;1.08;100.00;97748.49;2189805;81;21395;-83
2022/12/10 06:14:39;;;;;;;29.10;21.23;;;;;;;1.02;100.00;97751.74;2190136;81;21003;-83
2022/12/10 06:17:40;;;;;;;30.77;22.07;;;;;;;1.03;100.00;97765.05;2188913;81;21063;-82
2022/12/10 06:20:40;;;;;;;33.53;22.87;;;;;;;1.03;100.00;97759.04;2187312;81;20955;-84
2022/12/10 06:23:40;;;;;;;34.17;23.17;;;;;;;1.00;100.00;97767.94;2187101;81;20948;-83
2022/12/10 06:26:41;;;;;;;33.83;23.50;;;;;;;0.97;100.00;97763.58;2186880;81;21055;-83
2022/12/10 06:29:41;;;;;;;42.03;27.33;;;;;;;0.99;100.00;97774.78;2186653;81;21059;-82
2022/12/10 06:32:44;;;;;;;40.87;27.20;;;;;;;1.04;100.00;97775.80;2186768;81;20991;-82
2022/12/10 06:35:45;;;;;;;204.33;40.47;;;;;;;1.03;100.00;97772.77;2186261;81;20994;-84
2022/12/10 06:38:46;;;;;;;64.83;36.70;;;;;;;3.71;100.00;97776.59;2186541;81;21058;-81
2022/12/10 06:41:46;;;;;;;45.30;31.03;;;;;;;3.80;100.00;97775.50;2187991;81;20999;-83
2022/12/10 06:44:46;;;;;;;42.43;28.83;;;;;;;3.14;100.00;97775.28;2187284;81;20940;-81
2022/12/10 06:47:47;;;;;;;50.33;30.63;;;;;;;2.70;99.70;97775.90;2187664;81;21031;-82
2022/12/10 06:50:47;;;;;;;46.83;28.97;;;;;;;2.29;98.06;97771.80;2187643;81;20983;-84
2022/12/10 06:53:47;;;;;;;45.90;29.07;;;;;;;1.85;98.22;97762.42;2188086;81;21011;-81
2022/12/10 06:56:48;;;;;;;50.93;30.70;;;;;;;1.62;99.36;97750.57;2189941;81;21063;-82
2022/12/10 06:59:48;;;;;;;54.90;30.93;;;;;;;1.46;99.92;97749.66;2190314;81;20964;-83
2022/12/10 07:02:48;;;;;;;53.80;32.50;;;;;;;1.36;100.00;97742.50;2190382;81;20964;-83
2022/12/10 07:05:49;;;;;;;58.07;32.70;;;;;;;1.23;100.00;97734.41;2190092;81;20936;-81
2022/12/10 07:08:49;;;;;;;56.40;32.33;;;;;;;1.16;100.00;97744.05;2190374;81;21347;-82
2022/12/10 07:11:50;;;;;;;54.53;32.33;;;;;;;1.12;100.00;97741.34;2190244;81;20937;-82
2022/12/10 07:14:50;;;;;;;52.70;31.33;;;;;;;1.06;100.00;97746.29;2190267;81;20964;-82
2022/12/10 07:17:50;;;;;;;57.23;32.83;;;;;;;0.99;100.00;97749.08;2190501;81;20936;-82
2022/12/10 07:20:51;;;;;;;53.60;32.00;;;;;;;0.96;100.00;97759.26;2190024;81;20956;-82
2022/12/10 07:23:53;;;;;;;60.80;33.53;;;;;;;0.97;100.00;97771.28;2190185;81;20940;-82
2022/12/10 07:26:52;;;;;;;59.07;33.37;;;;;;;0.95;100.00;97769.95;2189876;81;21522;-81
2022/12/10 07:29:52;;;;;;;56.10;30.60;;;;;;;0.95;100.00;97769.95;2190424;81;20972;-82
2022/12/10 07:32:53;;;;;;;61.37;34.30;;;;;;;0.95;100.00;97784.49;2189480;81;20921;-81
2022/12/10 07:35:53;;;;;;;63.77;35.87;;;;;;;0.88;100.00;97783.84;2189588;81;20913;-82
2022/12/10 07:38:53;;;;;;;59.53;32.33;;;;;;;0.87;100.00;97784.66;2189094;81;20984;-82
2022/12/10 07:41:54;;;;;;;53.87;31.40;;;;;;;0.83;100.00;97790.48;2188479;81;21343;-81
2022/12/10 07:44:54;;;;;;;59.27;31.17;;;;;;;0.90;100.00;97801.45;2189043;81;20940;-82
2022/12/10 07:47:55;;;;;;;59.23;33.07;;;;;;;0.90;100.00;97805.31;2189377;81;21011;-82
2022/12/10 07:50:55;;;;;;;52.33;30.37;;;;;;;0.91;100.00;97812.20;2189196;81;21027;-81
2022/12/10 07:53:55;;;;;;;55.73;32.63;;;;;;;0.96;100.00;97808.08;2189201;81;20964;-80
2022/12/10 07:56:56;;;;;;;58.00;33.20;;;;;;;1.04;100.00;97822.05;2188347;81;21011;-83
2022/12/10 07:59:58;;;;;;;61.10;34.43;;;;;;;1.10;100.00;97811.09;2189075;81;21269;-82
2022/12/10 08:02:57;;;;;;;58.00;34.20;;;;;;;1.12;100.00;97807.75;2189278;81;21403;-83
2022/12/10 08:05:57;;;;;;;69.37;40.67;;;;;;;1.14;100.00;97800.96;2189757;81;20967;-83
2022/12/10 08:08:58;;;;;;;60.07;33.67;;;;;;;1.15;100.00;97811.70;2188935;81;20998;-82
2022/12/10 08:11:58;;;;;;;58.73;32.13;;;;;;;1.11;100.00;97823.13;2189573;81;21003;-81
2022/12/10 08:14:58;;;;;;;56.57;32.93;;;;;;;1.08;100.00;97831.61;2189273;81;20967;-82
2022/12/10 08:17:59;;;;;;;58.33;33.73;;;;;;;1.13;100.00;97824.92;2188407;81;21026;-82
2022/12/10 08:20:59;;;;;;;60.03;34.77;;;;;;;1.13;100.00;97837.77;2188479;81;21007;-82
2022/12/10 08:24:00;;;;;;;62.90;34.93;;;;;;;1.13;100.00;97844.20;2188913;81;20975;-82
2022/12/10 08:27:00;;;;;;;56.80;33.73;;;;;;;1.17;100.00;97848.61;2188880;81;21102;-82
2022/12/10 08:30:00;;;;;;;67.57;35.13;;;;;;;1.18;100.00;97850.77;2188717;81;21035;-82
2022/12/10 08:33:01;;;;;;;60.47;34.23;;;;;;;1.15;100.00;97855.40;2188896;81;21308;-82
2022/12/10 08:36:01;;;;;;;85.23;46.30;;;;;;;1.09;100.00;97856.89;2189144;81;20968;-82
2022/12/10 08:39:02;;;;;;;197.97;110.40;;;;;;;1.11;100.00;97852.27;2189475;81;20984;-82
2022/12/10 08:42:02;;;;;;;61.67;35.90;;;;;;;1.13;100.00;97857.46;2188539;81;21427;-83
2022/12/10 08:45:03;;;;;;;68.77;34.50;;;;;;;1.16;100.00;97850.72;2189113;81;20972;-83
2022/12/10 08:48:03;;;;;;;62.37;35.40;;;;;;;1.12;100.00;97852.73;2189274;81;20972;-83
2022/12/10 08:51:04;;;;;;;62.73;35.33;;;;;;;1.07;100.00;97856.84;2188353;81;21024;-82
2022/12/10 08:54:04;;;;;;;55.77;32.30;;;;;;;1.06;100.00;97843.53;2188373;81;21023;-83
2022/12/10 08:57:05;;;;;;;60.83;34.97;;;;;;;1.02;100.00;97842.10;2188474;81;21160;-83
2022/12/10 09:00:05;;;;;;;60.27;33.47;;;;;;;1.00;100.00;97838.19;2188215;81;21359;-83
2022/12/10 09:03:05;;;;;;;63.53;33.37;;;;;;;1.01;100.00;97827.50;2187735;81;20995;-83
2022/12/10 09:06:06;;;;;;;52.63;31.63;;;;;;;1.00;100.00;97838.19;2189269;81;20991;-83
2022/12/10 09:09:06;;;;;;;55.53;31.17;;;;;;;0.93;100.00;97851.66;2188583;81;21008;-82
2022/12/10 09:12:06;;;;;;;58.87;32.53;;;;;;;0.93;100.00;97851.66;2188206;81;20972;-83
2022/12/10 09:15:09;;;;;;;57.73;33.40;;;;;;;0.93;100.00;97842.67;2169474;81;21035;-82
2022/12/10 09:18:09;;;;;;;56.70;32.07;;;;;;;0.96;100.00;97829.92;2187104;81;21015;-84
2022/12/10 09:21:10;;;;;;;56.90;32.87;;;;;;;0.93;100.00;97820.42;2188008;81;21043;-82
2022/12/10 09:24:10;;;;;;;58.57;33.30;;;;;;;0.94;100.00;97818.72;2188835;81;20999;-83
2022/12/10 09:27:10;;;;;;;64.70;34.07;;;;;;;0.92;100.00;97825.50;2188217;81;21403;-82
2022/12/10 09:30:11;;;;;;;61.77;33.00;;;;;;;0.90;100.00;97825.86;2188730;81;21027;-82
2022/12/10 09:33:11;;;;;;;53.83;30.67;;;;;;;0.82;100.00;97829.84;2189231;81;20975;-82
2022/12/10 09:36:12;;;;;;;55.13;29.70;;;;;;;0.82;100.00;97829.44;2188261;81;20987;-83
2022/12/10 09:39:12;;;;;;;65.90;34.60;;;;;;;0.90;100.00;97829.31;2189502;81;21011;-81
2022/12/10 09:42:12;;;;;;;59.13;31.57;;;;;;;0.86;100.00;97835.55;2189930;81;21027;-82
2022/12/10 09:45:13;;;;;;;59.97;32.63;;;;;;;0.82;100.00;97828.56;2190246;81;21511;-80
2022/12/10 09:48:13;;;;;;;55.10;30.70;;;;;;;0.82;100.00;97827.27;2190127;81;20955;-83
2022/12/10 09:51:14;;;;;;;56.30;30.77;;;;;;;0.81;100.00;97826.81;2189500;81;20948;-81
2022/12/10 09:54:14;;;;;;;51.50;30.00;;;;;;;0.79;100.00;97820.34;2189785;81;20937;-81
2022/12/10 09:57:14;;;;;;;46.50;27.63;;;;;;;0.84;100.00;97820.08;2189695;81;21011;-83
2022/12/10 10:00:15;;;;;;;54.67;29.93;;;;;;;0.90;100.00;97811.73;2189369;81;21018;-84
2022/12/10 10:03:15;;;;;;;53.43;30.87;;;;;;;0.93;100.00;97806.70;2189352;81;21434;-81
2022/12/10 10:06:16;;;;;;;48.83;27.87;;;;;;;0.94;100.00;97809.73;2189612;81;21003;-83
2022/12/10 10:09:16;;;;;;;44.10;26.77;;;;;;;0.91;100.00;97807.06;2189800;81;20952;-83
2022/12/10 10:12:16;;;;;;;43.87;26.60;;;;;;;0.93;100.00;97801.15;2189523;81;21465;-82
2022/12/10 10:15:17;;;;;;;49.03;27.40;;;;;;;0.97;100.00;97799.55;2190263;81;20953;-82
2022/12/10 10:18:17;;;;;;;51.37;28.37;;;;;;;0.95;100.00;97794.77;2190230;81;21003;-83
2022/12/10 10:21:18;;;;;;;45.57;26.03;;;;;;;0.95;100.00;97802.07;2188979;81;21278;-82
2022/12/10 10:24:18;;;;;;;40.03;25.20;;;;;;;0.95;100.00;97808.49;2190071;81;21399;-83
2022/12/10 10:27:19;;;;;;;39.67;24.50;;;;;;;0.89;100.00;97815.13;2190417;81;20960;-83
2022/12/10 10:30:19;;;;;;;44.37;27.20;;;;;;;0.96;100.00;97818.36;2190197;81;21024;-83
2022/12/10 10:33:19;;;;;;;41.47;25.20;;;;;;;1.02;100.00;97817.69;2188409;81;21019;-81
2022/12/10 10:36:20;;;;;;;37.93;24.00;;;;;;;1.03;100.00;97828.42;2190302;81;20928;-82
2022/12/10 10:39:20;;;;;;;40.10;24.97;;;;;;;1.02;100.00;97817.27;2189433;81;21018;-83
2022/12/10 10:42:20;;;;;;;39.63;24.77;;;;;;;1.05;100.00;97809.66;2188305;81;21046;-83
2022/12/10 10:45:21;;;;;;;39.97;24.87;;;;;;;1.06;100.00;97810.12;2188501;81;21015;-82
2022/12/10 10:48:21;;;;;;;37.00;22.53;;;;;;;1.01;100.00;97807.82;2189337;81;21364;-83
2022/12/10 10:51:23;;;;;;;38.27;25.13;;;;;;;1.01;100.00;97807.82;2188590;81;20960;-82
2022/12/10 10:54:22;;;;;;;39.77;25.27;;;;;;;1.05;100.00;97797.22;2187889;81;21018;-82
2022/12/10 10:57:23;;;;;;;41.97;27.20;;;;;;;1.07;100.00;97805.45;2186831;81;21074;-83
2022/12/10 11:00:23;;;;;;;33.70;23.17;;;;;;;1.03;100.00;97810.02;2186980;81;21035;-83
2022/12/10 11:03:23;;;;;;;35.03;24.43;;;;;;;1.09;100.00;97817.06;2186832;81;21063;-80
2022/12/10 11:06:24;;;;;;;38.53;23.63;;;;;;;1.05;100.00;97817.38;2187410;81;21698;-82
2022/12/10 11:09:24;;;;;;;35.57;23.07;;;;;;;1.02;100.00;97817.27;2188317;81;20960;-81
2022/12/10 11:12:24;;;;;;;38.13;22.67;;;;;;;1.03;100.00;97812.59;2187461;81;20984;-83
2022/12/10 11:15:25;;;;;;;37.97;22.97;;;;;;;0.98;99.80;97815.42;2187771;81;21443;-84
2022/12/10 11:18:25;;;;;;;41.43;23.93;;;;;;;0.98;100.00;97814.14;2187755;81;21003;-83
2022/12/10 11:21:26;;;;;;;33.40;21.13;;;;;;;0.97;100.00;97802.12;2186789;81;21035;-83
2022/12/10 11:24:27;;;;;;;29.03;19.67;;;;;;;0.99;99.95;97795.33;2187405;81;21316;-81
2022/12/10 11:27:26;;;;;;;25.97;17.70;;;;;;;1.03;99.88;97802.73;2186589;81;21011;-83
2022/12/10 11:30:27;;;;;;;25.03;17.30;;;;;;;1.06;99.71;97804.11;2186379;81;20987;-83
2022/12/10 11:33:27;;;;;;;25.33;16.93;;;;;;;1.07;99.22;97805.86;2187028;81;21031;-83
2022/12/10 11:36:28;;;;;;;24.23;15.90;;;;;;;1.10;99.60;97801.69;2186614;81;20959;-83
2022/12/10 11:39:28;;;;;;;27.27;17.07;;;;;;;1.16;98.97;97803.58;2186782;81;20952;-84
2022/12/10 11:42:28;;;;;;;20.83;15.33;;;;;;;1.23;99.24;97802.54;2187525;81;20991;-83
2022/12/10 11:45:29;;;;;;;22.63;16.13;;;;;;;1.29;98.13;97805.72;2186856;81;20983;-83
2022/12/10 11:48:29;;;;;;;21.57;15.67;;;;;;;1.31;98.23;97811.77;2187359;81;20921;-83
2022/12/10 11:51:30;;;;;;;23.63;15.60;;;;;;;1.37;98.44;97822.66;2187715;81;21075;-84
2022/12/10 11:54:30;;;;;;;21.70;16.27;;;;;;;1.42;98.28;97826.25;2187756;81;20976;-84
2022/12/10 11:57:30;;;;;;;20.43;15.63;;;;;;;1.48;98.27;97833.74;2188462;81;21007;-83
2022/12/10 12:00:31;;;;;;;25.53;17.53;;;;;;;1.55;98.02;97830.53;2188458;81;21055;-84
2022/12/10 12:03:31;;;;;;;29.33;19.00;;;;;;;1.54;97.69;97835.63;2189333;81;20924;-83
2022/12/10 12:06:32;;;;;;;25.33;19.20;;;;;;;1.52;97.00;97837.28;2190772;81;20968;-83
2022/12/10 12:09:32;;;;;;;26.10;18.97;;;;;;;1.54;97.38;97831.36;2189134;81;20967;-85
2022/12/10 12:12:32;;;;;;;28.23;18.23;;;;;;;1.63;97.59;97841.06;2188156;81;21004;-83
2022/12/10 12:15:33;;;;;;;22.33;16.90;;;;;;;1.70;97.03;97836.97;2188946;81;21027;-84
2022/12/10 12:18:33;;;;;;;27.10;18.97;;;;;;;1.76;97.01;97838.06;2188463;81;21370;-85
2022/12/10 12:21:34;;;;;;;26.57;18.63;;;;;;;1.76;96.73;97834.20;2188329;81;21019;-84
2022/12/10 12:24:34;;;;;;;27.73;20.07;;;;;;;1.76;96.79;97822.63;2188325;81;20963;-84
2022/12/10 12:27:34;;;;;;;25.80;18.50;;;;;;;1.72;95.93;97805.73;2188752;81;21477;-84
2022/12/10 12:30:35;;;;;;;27.87;19.67;;;;;;;1.72;95.93;97805.73;2189442;81;21003;-82
2022/12/10 12:33:35;;;;;;;28.03;19.20;;;;;;;1.70;96.02;97792.83;2189861;81;20956;-83
2022/12/10 12:36:36;;;;;;;24.67;17.47;;;;;;;1.71;95.90;97786.85;2189759;81;21367;-83
2022/12/10 12:39:36;;;;;;;24.33;17.60;;;;;;;1.70;95.88;97795.40;2189162;81;20995;-83
2022/12/10 12:42:37;;;;;;;23.73;16.97;;;;;;;1.65;96.11;97795.67;2189437;81;20973;-83
2022/12/10 12:45:37;;;;;;;24.80;17.43;;;;;;;1.65;96.11;97795.67;2190758;81;20901;-83
2022/12/10 12:48:37;;;;;;;22.57;16.90;;;;;;;1.66;96.00;97801.28;2190428;81;20941;-83
2022/12/10 12:51:38;;;;;;;24.33;16.70;;;;;;;1.71;96.28;97810.00;2189857;81;20996;-84
2022/12/10 12:54:38;;;;;;;45.13;28.37;;;;;;;1.73;95.76;97816.06;2189375;81;21367;-84
2022/12/10 12:57:38;;;;;;;28.27;18.97;;;;;;;1.68;95.26;97812.48;2188991;81;20980;-84
2022/12/10 13:00:39;;;;;;;33.00;23.13;;;;;;;1.62;95.22;97812.72;2189190;81;20928;-84
2022/12/10 13:03:39;;;;;;;31.40;23.30;;;;;;;1.58;95.18;97811.34;2189407;81;21828;-83
2022/12/10 13:06:44;;;;;;;28.93;21.33;;;;;;;1.51;95.27;97824.84;2189981;81;20944;-83
2022/12/10 13:09:40;;;;;;;30.97;21.57;;;;;;;1.55;96.13;97832.23;2190786;81;20948;-83
2022/12/10 13:12:41;;;;;;;29.67;20.60;;;;;;;1.59;96.06;97825.95;2189875;81;20976;-83
2022/12/10 13:15:42;;;;;;;30.40;21.17;;;;;;;1.63;96.19;97828.20;2189245;81;20967;-83
2022/12/10 13:18:42;;;;;;;35.40;23.77;;;;;;;1.58;95.16;97837.47;2190326;81;21039;-83
2022/12/10 13:21:43;;;;;;;31.97;21.17;;;;;;;1.49;95.46;97840.63;2190278;81;20967;-83
2022/12/10 13:24:43;;;;;;;29.90;20.50;;;;;;;1.44;95.37;97839.62;2190358;81;21312;-83
2022/12/10 13:27:43;;;;;;;25.40;19.30;;;;;;;1.39;95.61;97834.74;2190472;81;21032;-83
2022/12/10 13:30:44;;;;;;;26.57;18.83;;;;;;;1.35;95.62;97832.03;2190737;81;20924;-83
2022/12/10 13:33:44;;;;;;;26.47;18.63;;;;;;;1.35;96.11;97830.74;2190324;81;20964;-83
2022/12/10 13:36:45;;;;;;;28.90;20.63;;;;;;;1.34;96.05;97831.16;2190701;81;20933;-83
2022/12/10 13:39:45;;;;;;;25.20;18.27;;;;;;;1.28;96.26;97823.25;2190411;81;20968;-84
2022/12/10 13:46:04;;;;;;;31.70;23.03;;;;;;;1.31;96.56;97829.77;2190302;81;20929;-84
2022/12/10 13:49:06;;;;;;;29.97;19.77;;;;;;;1.30;96.42;97829.72;2190579;81;20913;-84
2022/12/10 13:52:05;;;;;;;27.60;20.00;;;;;;;1.31;96.51;97827.61;2190940;81;21304;-83
2022/12/10 13:55:06;;;;;;;29.67;20.30;;;;;;;1.39;96.92;97828.73;2190389;81;20964;-83
2022/12/10 13:58:06;;;;;;;29.47;20.30;;;;;;;1.39;96.92;97828.73;2190683;81;21008;-83
2022/12/10 14:01:06;;;;;;;31.77;20.07;;;;;;;1.39;96.55;97826.16;2190628;81;20956;-84
2022/12/10 14:04:07;;;;;;;34.83;21.27;;;;;;;1.34;96.25;97835.42;2190493;81;20969;-83